Time;durP1;ratioP1;P1;durP2;ratioP2;P2;SDS_P1;SDS_P2;PMS_P1;PMS_P2;Temp;Humidity;BMP_temperature;BMP_pressure;BME280_temperature;BME280_humidity;BME280_pressure;Samples;Min_cycle;Max_cycle;Signal;HPM_P1;HPM_P2
2023/10/27 00:01:12;;;;;;;19.75;15.23;;;;;;;;;;5281863;28;20366;-72
2023/10/27 00:03:44;;;;;;;20.17;16.05;;;;;;;;;;5281198;28;20028;-72
2023/10/27 00:06:15;;;;;;;22.35;16.08;;;;;;;;;;5281782;28;20025;-72
2023/10/27 00:08:46;;;;;;;22.47;16.03;;;;;;;;;;5280845;28;20032;-72
2023/10/27 00:11:17;;;;;;;20.02;16.30;;;;;;;;;;5282036;28;20254;-72
2023/10/27 00:13:48;;;;;;;23.00;17.63;;;;;;;;;;5281273;28;20070;-72
2023/10/27 00:16:20;;;;;;;19.52;15.88;;;;;;;;;;5281198;28;20016;-72
2023/10/27 00:18:51;;;;;;;22.98;16.83;;;;;;;;;;5281032;28;20037;-72
2023/10/27 00:21:22;;;;;;;21.75;16.50;;;;;;;;;;5282070;28;20055;-72
2023/10/27 00:23:53;;;;;;;22.45;17.05;;;;;;;;;;5280442;28;20036;-72
2023/10/27 00:26:24;;;;;;;22.42;17.60;;;;;;;;;;5281520;28;20468;-72
2023/10/27 00:28:55;;;;;;;26.23;17.65;;;;;;;;;;5281446;28;20047;-72
2023/10/27 00:31:27;;;;;;;24.40;17.38;;;;;;;;;;5280648;28;20263;-72
2023/10/27 00:33:58;;;;;;;26.55;18.77;;;;;;;;;;5281323;28;20024;-71
2023/10/27 00:36:29;;;;;;;23.15;18.13;;;;;;;;;;5281461;28;20536;-72
2023/10/27 00:39:00;;;;;;;27.40;19.50;;;;;;;;;;5280470;28;20078;-72
2023/10/27 00:41:31;;;;;;;24.63;18.38;;;;;;;;;;5281439;28;20410;-72
2023/10/27 00:44:03;;;;;;;20.85;17.60;;;;;;;;;;5280427;28;20043;-72
2023/10/27 00:46:34;;;;;;;23.88;18.08;;;;;;;;;;5281293;28;20045;-72
2023/10/27 00:49:05;;;;;;;26.65;17.83;;;;;;;;;;5282349;28;20031;-72
2023/10/27 00:51:37;;;;;;;25.92;17.58;;;;;;;;;;5284360;28;20020;-72
2023/10/27 00:54:11;;;;;;;25.58;18.25;;;;;;;;;;5283282;28;20025;-72
2023/10/27 00:56:44;;;;;;;25.20;18.88;;;;;;;;;;5283057;28;20024;-72
2023/10/27 00:59:15;;;;;;;22.65;18.40;;;;;;;;;;5282521;28;20417;-72
2023/10/27 01:01:46;;;;;;;24.08;17.85;;;;;;;;;;5282434;28;20356;-72
2023/10/27 01:04:18;;;;;;;24.90;17.42;;;;;;;;;;5283025;28;20029;-72
2023/10/27 01:06:49;;;;;;;24.83;17.38;;;;;;;;;;5282534;28;20013;-72
2023/10/27 01:09:20;;;;;;;23.33;16.95;;;;;;;;;;5285015;28;20016;-72
2023/10/27 01:11:52;;;;;;;23.17;16.67;;;;;;;;;;5283744;28;20078;-72
2023/10/27 01:14:23;;;;;;;23.25;15.52;;;;;;;;;;5284615;28;20024;-72
2023/10/27 01:16:56;;;;;;;23.75;16.30;;;;;;;;;;5284677;28;20100;-72
2023/10/27 01:19:27;;;;;;;21.52;16.63;;;;;;;;;;5283742;28;20024;-72
2023/10/27 01:21:58;;;;;;;23.77;15.68;;;;;;;;;;5284830;28;20062;-72
2023/10/27 01:24:30;;;;;;;22.92;15.75;;;;;;;;;;5284546;28;20024;-72
2023/10/27 01:27:01;;;;;;;22.52;16.02;;;;;;;;;;5283724;28;20016;-72
2023/10/27 01:29:32;;;;;;;22.08;15.20;;;;;;;;;;5284292;28;20020;-72
2023/10/27 01:32:03;;;;;;;18.92;14.65;;;;;;;;;;5284420;28;20095;-72
2023/10/27 01:34:35;;;;;;;19.75;15.55;;;;;;;;;;5283477;28;20360;-72
2023/10/27 01:37:06;;;;;;;26.05;15.38;;;;;;;;;;5284872;28;20098;-71
2023/10/27 01:39:37;;;;;;;24.15;14.63;;;;;;;;;;5284215;28;20033;-72
2023/10/27 01:42:08;;;;;;;23.90;15.32;;;;;;;;;;5283288;28;20028;-72
2023/10/27 01:44:39;;;;;;;21.35;14.77;;;;;;;;;;5284269;28;20060;-72
2023/10/27 01:47:10;;;;;;;21.65;13.85;;;;;;;;;;5283001;28;20045;-72
2023/10/27 01:49:42;;;;;;;22.35;13.65;;;;;;;;;;5284014;28;20380;-72
2023/10/27 01:52:14;;;;;;;20.92;13.85;;;;;;;;;;5283996;28;20382;-72
2023/10/27 01:54:45;;;;;;;16.65;13.35;;;;;;;;;;5282826;28;20088;-72
2023/10/27 01:57:17;;;;;;;18.55;12.52;;;;;;;;;;5284373;28;20094;-72
2023/10/27 01:59:48;;;;;;;20.05;12.45;;;;;;;;;;5282828;28;20032;-72
2023/10/27 02:02:19;;;;;;;18.50;11.63;;;;;;;;;;5283443;28;20417;-71
2023/10/27 02:04:51;;;;;;;16.30;11.32;;;;;;;;;;5283495;28;20096;-72
2023/10/27 02:07:24;;;;;;;20.52;11.57;;;;;;;;;;5284148;28;20016;-72
2023/10/27 02:09:59;;;;;;;18.10;11.00;;;;;;;;;;5283022;28;20432;-72
2023/10/27 02:12:30;;;;;;;17.73;10.88;;;;;;;;;;5283444;28;20016;-72
2023/10/27 02:15:01;;;;;;;17.17;10.93;;;;;;;;;;5283466;28;20017;-72
2023/10/27 02:17:33;;;;;;;15.13;11.05;;;;;;;;;;5282532;28;20035;-72
2023/10/27 02:20:04;;;;;;;16.65;10.57;;;;;;;;;;5283630;28;20025;-72
2023/10/27 02:22:35;;;;;;;16.48;10.48;;;;;;;;;;5282770;28;20021;-72
2023/10/27 02:25:06;;;;;;;15.65;9.95;;;;;;;;;;5283413;28;20036;-72
2023/10/27 02:27:41;;;;;;;18.30;10.07;;;;;;;;;;5283370;28;20013;-72
2023/10/27 02:30:12;;;;;;;14.93;9.82;;;;;;;;;;5282289;28;20048;-72
2023/10/27 02:32:44;;;;;;;13.40;9.27;;;;;;;;;;5283293;28;20664;-72
2023/10/27 02:35:15;;;;;;;13.25;8.95;;;;;;;;;;5283424;28;20066;-73
2023/10/27 02:37:46;;;;;;;15.90;8.20;;;;;;;;;;5281712;28;20043;-71
2023/10/27 02:40:17;;;;;;;13.18;8.35;;;;;;;;;;5283360;28;20474;-70
2023/10/27 02:42:48;;;;;;;15.38;8.07;;;;;;;;;;5282474;28;20031;-70
2023/10/27 02:45:21;;;;;;;13.27;7.53;;;;;;;;;;5282503;28;20020;-71
2023/10/27 02:47:52;;;;;;;13.15;7.32;;;;;;;;;;5282409;28;20712;-71
2023/10/27 02:50:23;;;;;;;10.85;6.85;;;;;;;;;;5282050;28;20103;-72
2023/10/27 02:52:55;;;;;;;10.57;6.70;;;;;;;;;;5282641;28;20028;-70
2023/10/27 02:55:26;;;;;;;13.68;6.75;;;;;;;;;;5282703;28;20359;-71
2023/10/27 02:57:58;;;;;;;18.15;6.93;;;;;;;;;;5281956;28;20475;-71
2023/10/27 03:00:30;;;;;;;13.27;5.85;;;;;;;;;;5282505;28;20111;-70
2023/10/27 03:03:01;;;;;;;12.27;5.95;;;;;;;;;;5282533;28;20518;-71
2023/10/27 03:05:32;;;;;;;10.52;6.07;;;;;;;;;;5281576;28;20024;-71
2023/10/27 03:08:03;;;;;;;11.98;5.88;;;;;;;;;;5282447;28;20082;-71
2023/10/27 03:10:34;;;;;;;13.85;5.47;;;;;;;;;;5282574;28;20501;-71
2023/10/27 03:13:08;;;;;;;13.93;5.43;;;;;;;;;;5280856;28;20024;-71
2023/10/27 03:15:39;;;;;;;11.40;5.22;;;;;;;;;;5282163;28;20025;-70
2023/10/27 03:18:11;;;;;;;12.68;5.43;;;;;;;;;;5281985;28;20040;-70
2023/10/27 03:20:42;;;;;;;10.20;4.72;;;;;;;;;;5281612;28;20715;-71
2023/10/27 03:23:13;;;;;;;10.32;5.03;;;;;;;;;;5282343;28;20099;-71
2023/10/27 03:25:44;;;;;;;8.82;4.28;;;;;;;;;;5281240;28;20028;-72
2023/10/27 03:28:16;;;;;;;10.50;4.85;;;;;;;;;;5282416;28;20085;-71
2023/10/27 03:30:48;;;;;;;8.52;4.95;;;;;;;;;;5281522;28;20270;-72
2023/10/27 03:33:19;;;;;;;10.38;4.80;;;;;;;;;;5281707;28;20024;-72
2023/10/27 03:35:50;;;;;;;8.93;4.97;;;;;;;;;;5281761;28;20514;-71
2023/10/27 03:38:21;;;;;;;12.35;4.60;;;;;;;;;;5282293;28;20055;-71
2023/10/27 03:40:54;;;;;;;10.05;4.78;;;;;;;;;;5280876;28;20090;-72
2023/10/27 03:43:25;;;;;;;11.02;4.47;;;;;;;;;;5282127;28;20637;-71
2023/10/27 03:45:56;;;;;;;9.38;4.20;;;;;;;;;;5282070;28;20016;-72
2023/10/27 03:48:28;;;;;;;9.77;4.20;;;;;;;;;;5280754;28;20055;-72
2023/10/27 03:51:03;;;;;;;9.20;4.47;;;;;;;;;;5281663;28;20029;-71
2023/10/27 03:53:34;;;;;;;12.40;4.50;;;;;;;;;;5281144;28;20025;-71
2023/10/27 03:56:05;;;;;;;9.45;4.68;;;;;;;;;;5281671;28;20493;-71
2023/10/27 03:58:36;;;;;;;10.80;4.60;;;;;;;;;;5281428;28;20036;-72
2023/10/27 04:01:09;;;;;;;11.48;4.35;;;;;;;;;;5280849;28;20027;-71
2023/10/27 04:03:40;;;;;;;12.15;4.53;;;;;;;;;;5281374;28;20024;-71
2023/10/27 04:06:11;;;;;;;11.23;4.80;;;;;;;;;;5281957;28;20020;-72
2023/10/27 04:08:42;;;;;;;8.10;4.20;;;;;;;;;;5280963;28;20115;-72
2023/10/27 04:11:14;;;;;;;6.17;4.43;;;;;;;;;;5281661;28;20017;-72
2023/10/27 04:13:45;;;;;;;9.25;4.32;;;;;;;;;;5281417;28;20262;-72
2023/10/27 04:16:17;;;;;;;8.40;3.97;;;;;;;;;;5281007;28;20028;-72
2023/10/27 04:18:49;;;;;;;7.95;3.83;;;;;;;;;;5281303;28;20063;-71
2023/10/27 04:21:20;;;;;;;9.48;3.67;;;;;;;;;;5281875;28;20020;-72
2023/10/27 04:23:51;;;;;;;10.55;3.70;;;;;;;;;;5282865;28;20016;-72
2023/10/27 04:26:22;;;;;;;11.18;4.20;;;;;;;;;;5286095;28;20017;-71
2023/10/27 04:28:53;;;;;;;9.65;3.30;;;;;;;;;;5284549;28;20032;-72
2023/10/27 04:31:25;;;;;;;7.93;3.42;;;;;;;;;;5285843;28;20025;-72
2023/10/27 04:33:56;;;;;;;10.52;3.67;;;;;;;;;;5285636;28;20266;-71
2023/10/27 04:36:28;;;;;;;7.45;3.38;;;;;;;;;;5284851;28;20074;-72
2023/10/27 04:38:59;;;;;;;8.43;3.63;;;;;;;;;;5285350;28;20025;-71
2023/10/27 04:41:30;;;;;;;6.72;3.58;;;;;;;;;;5285255;28;20534;-71
2023/10/27 04:44:02;;;;;;;10.15;3.35;;;;;;;;;;5284731;28;20726;-71
2023/10/27 04:46:33;;;;;;;8.68;3.50;;;;;;;;;;5284911;28;20052;-71
2023/10/27 04:49:04;;;;;;;6.50;2.95;;;;;;;;;;5285533;28;20584;-72
2023/10/27 04:51:35;;;;;;;7.30;3.27;;;;;;;;;;5284387;28;20021;-72
2023/10/27 04:54:06;;;;;;;10.00;3.55;;;;;;;;;;5284982;28;20270;-72
2023/10/27 04:56:37;;;;;;;9.73;3.50;;;;;;;;;;5285225;28;20020;-72
2023/10/27 04:59:09;;;;;;;11.15;3.42;;;;;;;;;;5284233;28;20029;-72
2023/10/27 05:01:40;;;;;;;11.10;3.55;;;;;;;;;;5284876;28;20467;-72
2023/10/27 05:04:11;;;;;;;11.77;3.50;;;;;;;;;;5284078;28;20474;-72
2023/10/27 05:06:46;;;;;;;11.10;3.88;;;;;;;;;;5285050;28;20107;-72
2023/10/27 05:09:21;;;;;;;9.63;3.42;;;;;;;;;;5285091;28;20020;-72
2023/10/27 05:11:53;;;;;;;8.10;3.47;;;;;;;;;;5283717;28;20023;-72
2023/10/27 05:14:25;;;;;;;9.55;3.15;;;;;;;;;;5284718;28;20028;-72
2023/10/27 05:16:56;;;;;;;8.05;3.22;;;;;;;;;;5284566;28;20017;-72
2023/10/27 05:19:27;;;;;;;9.55;3.55;;;;;;;;;;5283849;28;20052;-72
2023/10/27 05:21:59;;;;;;;12.50;3.78;;;;;;;;;;5284693;28;20024;-72
2023/10/27 05:24:31;;;;;;;9.27;3.60;;;;;;;;;;5284691;28;20029;-72
2023/10/27 05:27:03;;;;;;;8.10;3.35;;;;;;;;;;5284234;28;20363;-73
2023/10/27 05:29:34;;;;;;;8.13;4.07;;;;;;;;;;5284417;28;20020;-73
2023/10/27 05:32:05;;;;;;;9.00;4.00;;;;;;;;;;5283749;28;20046;-73
2023/10/27 05:34:36;;;;;;;12.15;4.55;;;;;;;;;;5283524;28;20016;-72
2023/10/27 05:37:07;;;;;;;6.55;4.28;;;;;;;;;;5284391;28;20021;-72
2023/10/27 05:39:39;;;;;;;10.32;4.38;;;;;;;;;;5283321;28;20039;-72
2023/10/27 05:42:10;;;;;;;10.63;5.82;;;;;;;;;;5283717;28;20037;-72
2023/10/27 05:44:41;;;;;;;7.00;4.60;;;;;;;;;;5283791;28;20034;-73
2023/10/27 05:47:12;;;;;;;6.25;4.57;;;;;;;;;;5282968;28;20055;-72
2023/10/27 05:49:43;;;;;;;6.63;4.47;;;;;;;;;;5283367;28;20016;-72
2023/10/27 05:52:16;;;;;;;5.25;4.13;;;;;;;;;;5283888;28;20277;-73
2023/10/27 05:54:47;;;;;;;5.28;4.43;;;;;;;;;;5282914;28;20269;-73
2023/10/27 05:57:20;;;;;;;6.93;4.28;;;;;;;;;;5284120;28;20028;-73
2023/10/27 05:59:51;;;;;;;7.40;5.18;;;;;;;;;;5282532;28;20029;-73
2023/10/27 06:02:22;;;;;;;6.72;4.82;;;;;;;;;;5281076;28;20359;-73
2023/10/27 06:04:53;;;;;;;6.80;3.90;;;;;;;;;;5281208;28;20031;-72
2023/10/27 06:07:24;;;;;;;6.18;4.13;;;;;;;;;;5281673;28;20016;-72
2023/10/27 06:09:56;;;;;;;6.45;4.57;;;;;;;;;;5282506;28;20020;-71
2023/10/27 06:12:27;;;;;;;7.47;4.53;;;;;;;;;;5283566;28;20036;-72
2023/10/27 06:14:58;;;;;;;7.55;4.32;;;;;;;;;;5282788;28;20542;-72
2023/10/27 06:17:35;;;;;;;5.95;4.60;;;;;;;;;;5283539;28;20048;-72
2023/10/27 06:20:07;;;;;;;5.22;3.78;;;;;;;;;;5283376;28;20036;-72
2023/10/27 06:22:38;;;;;;;5.00;3.35;;;;;;;;;;5282359;28;20477;-72
2023/10/27 06:25:09;;;;;;;4.97;3.78;;;;;;;;;;5283163;28;20028;-72
2023/10/27 06:27:40;;;;;;;5.75;4.15;;;;;;;;;;5283075;28;20031;-73
2023/10/27 06:30:12;;;;;;;6.70;3.67;;;;;;;;;;5282398;28;20062;-72
2023/10/27 06:32:43;;;;;;;6.22;3.58;;;;;;;;;;5283150;28;20414;-73
2023/10/27 06:35:14;;;;;;;5.13;3.70;;;;;;;;;;5283057;28;20028;-72
2023/10/27 06:37:45;;;;;;;6.00;3.55;;;;;;;;;;5281577;28;20024;-72
2023/10/27 06:40:17;;;;;;;6.22;4.00;;;;;;;;;;5283002;28;20063;-73
2023/10/27 06:42:48;;;;;;;4.70;3.40;;;;;;;;;;5281861;28;20025;-73
2023/10/27 06:45:19;;;;;;;5.13;3.60;;;;;;;;;;5283149;28;20491;-73
2023/10/27 06:47:50;;;;;;;6.22;3.33;;;;;;;;;;5281976;28;20057;-73
2023/10/27 06:50:22;;;;;;;4.93;3.42;;;;;;;;;;5282167;28;20537;-72
2023/10/27 06:52:53;;;;;;;5.30;3.20;;;;;;;;;;5282075;28;20039;-72
2023/10/27 06:55:24;;;;;;;4.88;3.35;;;;;;;;;;5282590;28;20024;-73
2023/10/27 06:57:55;;;;;;;5.28;3.28;;;;;;;;;;5281582;28;20051;-72
2023/10/27 07:00:26;;;;;;;4.47;3.43;;;;;;;;;;5282459;28;20035;-71
2023/10/27 07:02:58;;;;;;;4.32;3.50;;;;;;;;;;5282207;28;20342;-72
2023/10/27 07:05:29;;;;;;;3.72;3.03;;;;;;;;;;5281728;28;20027;-71
2023/10/27 07:08:01;;;;;;;5.00;2.97;;;;;;;;;;5282303;28;20032;-71
2023/10/27 07:10:32;;;;;;;5.47;3.50;;;;;;;;;;5281538;28;20016;-72
2023/10/27 07:13:03;;;;;;;4.45;3.45;;;;;;;;;;5282222;28;20138;-71
2023/10/27 07:15:34;;;;;;;4.77;3.10;;;;;;;;;;5282087;28;20047;-71
2023/10/27 07:18:06;;;;;;;4.50;3.35;;;;;;;;;;5280880;28;20302;-71
2023/10/27 07:20:40;;;;;;;3.55;3.03;;;;;;;;;;5281998;28;20031;-71
2023/10/27 07:23:11;;;;;;;3.55;2.85;;;;;;;;;;5282096;28;20020;-69
2023/10/27 07:25:42;;;;;;;3.40;2.80;;;;;;;;;;5281214;28;20020;-70
2023/10/27 07:28:14;;;;;;;5.75;3.97;;;;;;;;;;5281897;28;20470;-71
2023/10/27 07:30:45;;;;;;;5.38;4.00;;;;;;;;;;5281750;28;20422;-71
2023/10/27 07:33:16;;;;;;;4.53;4.13;;;;;;;;;;5281507;28;20114;-71
2023/10/27 07:35:47;;;;;;;4.15;3.75;;;;;;;;;;5281252;28;20033;-71
2023/10/27 07:38:19;;;;;;;3.25;2.95;;;;;;;;;;5282031;28;20032;-71
2023/10/27 07:40:54;;;;;;;4.00;3.00;;;;;;;;;;5280884;28;20020;-70
2023/10/27 07:43:25;;;;;;;4.25;2.90;;;;;;;;;;5276511;28;20075;-71
2023/10/27 07:45:56;;;;;;;3.55;2.80;;;;;;;;;;5280266;28;20052;-71
2023/10/27 07:48:27;;;;;;;3.95;2.88;;;;;;;;;;5279676;28;20055;-72
2023/10/27 07:50:59;;;;;;;5.00;2.83;;;;;;;;;;5279333;28;20027;-73
2023/10/27 07:53:30;;;;;;;3.90;2.78;;;;;;;;;;5278913;28;20462;-71
2023/10/27 07:56:03;;;;;;;2.97;2.67;;;;;;;;;;5278907;28;20028;-72
2023/10/27 07:58:34;;;;;;;3.22;2.70;;;;;;;;;;5280200;28;20032;-73
2023/10/27 08:01:05;;;;;;;2.63;2.20;;;;;;;;;;5278557;28;20456;-72
2023/10/27 08:03:38;;;;;;;4.88;2.88;;;;;;;;;;5279193;28;20087;-71
2023/10/27 08:06:09;;;;;;;4.50;2.78;;;;;;;;;;5279335;28;20082;-72
2023/10/27 08:08:41;;;;;;;3.83;2.00;;;;;;;;;;5278647;28;20020;-73
2023/10/27 08:11:16;;;;;;;3.17;2.88;;;;;;;;;;5279046;28;20016;-72
2023/10/27 08:13:48;;;;;;;3.13;2.40;;;;;;;;;;5278881;28;20108;-73
2023/10/27 08:16:19;;;;;;;3.38;3.08;;;;;;;;;;5281441;28;20084;-72
2023/10/27 08:18:51;;;;;;;2.92;2.65;;;;;;;;;;5281281;28;20387;-72
2023/10/27 08:21:22;;;;;;;4.45;2.50;;;;;;;;;;5281058;28;20032;-73
2023/10/27 08:23:53;;;;;;;3.97;2.72;;;;;;;;;;5281009;28;20108;-72
2023/10/27 08:26:24;;;;;;;3.57;3.03;;;;;;;;;;5281257;28;20016;-72
2023/10/27 08:28:55;;;;;;;2.78;2.53;;;;;;;;;;5280311;28;20267;-72
2023/10/27 08:31:26;;;;;;;2.92;2.55;;;;;;;;;;5281560;28;20031;-73
2023/10/27 08:33:59;;;;;;;4.05;2.88;;;;;;;;;;5281302;28;20021;-73
2023/10/27 08:36:31;;;;;;;3.53;2.47;;;;;;;;;;5280116;28;20043;-75
2023/10/27 08:39:03;;;;;;;3.53;2.47;;;;;;;;;;5281035;28;20025;-73
2023/10/27 08:41:36;;;;;;;2.10;1.88;;;;;;;;;;5281248;28;20490;-73
2023/10/27 08:44:08;;;;;;;2.30;2.10;;;;;;;;;;5280467;28;20020;-73
2023/10/27 08:46:39;;;;;;;2.53;2.00;;;;;;;;;;5281015;28;20033;-73
2023/10/27 08:49:11;;;;;;;2.97;1.70;;;;;;;;;;5280231;28;20082;-73
2023/10/27 08:51:42;;;;;;;2.50;2.15;;;;;;;;;;5281246;28;21061;-71
2023/10/27 08:54:13;;;;;;;2.70;2.45;;;;;;;;;;5279698;28;20210;-71
2023/10/27 08:56:45;;;;;;;3.22;2.53;;;;;;;;;;5279324;28;20522;-72
2023/10/27 08:59:16;;;;;;;2.83;2.53;;;;;;;;;;5281216;28;20036;-72
2023/10/27 09:01:47;;;;;;;3.30;3.00;;;;;;;;;;5280366;28;20032;-72
2023/10/27 09:04:20;;;;;;;3.40;3.10;;;;;;;;;;5280431;28;20052;-72
2023/10/27 09:06:51;;;;;;;3.40;3.05;;;;;;;;;;5280703;28;20017;-72
2023/10/27 09:09:22;;;;;;;3.85;3.55;;;;;;;;;;5281110;28;20031;-72
2023/10/27 09:11:54;;;;;;;4.10;3.55;;;;;;;;;;5283321;28;20092;-72
2023/10/27 09:14:27;;;;;;;4.35;3.40;;;;;;;;;;5284564;28;20479;-71
2023/10/27 09:17:07;;;;;;;3.20;2.92;;;;;;;;;;5284610;28;20021;-72
2023/10/27 09:19:39;;;;;;;4.10;3.08;;;;;;;;;;5284053;28;20029;-74
2023/10/27 09:22:18;;;;;;;7.18;2.92;;;;;;;;;;5284339;28;20379;-73
2023/10/27 09:24:50;;;;;;;5.25;3.55;;;;;;;;;;5283053;28;20024;-73
2023/10/27 09:27:27;;;;;;;4.13;2.92;;;;;;;;;;5284534;28;20377;-73
2023/10/27 09:29:58;;;;;;;3.88;3.47;;;;;;;;;;5284031;28;20054;-76
2023/10/27 09:32:30;;;;;;;3.92;3.53;;;;;;;;;;5283641;28;20476;-75
2023/10/27 09:35:13;;;;;;;4.53;3.45;;;;;;;;;;5284071;28;20024;-75
2023/10/27 09:37:46;;;;;;;3.70;3.00;;;;;;;;;;5283997;28;20093;-74
2023/10/27 09:40:18;;;;;;;5.45;3.38;;;;;;;;;;5284268;28;20028;-74
2023/10/27 09:42:51;;;;;;;4.38;3.28;;;;;;;;;;5284649;28;20545;-73
2023/10/27 09:45:26;;;;;;;4.97;3.72;;;;;;;;;;5283962;28;20421;-74
2023/10/27 09:48:02;;;;;;;5.03;4.07;;;;;;;;;;5283804;28;20091;-75
2023/10/27 09:50:34;;;;;;;4.65;3.90;;;;;;;;;;5284200;28;20032;-75
2023/10/27 09:53:06;;;;;;;4.47;3.97;;;;;;;;;;5283225;28;20036;-74
2023/10/27 09:55:37;;;;;;;5.63;4.55;;;;;;;;;;5283890;28;20018;-73
2023/10/27 09:58:09;;;;;;;6.93;5.30;;;;;;;;;;5283420;28;20027;-74
2023/10/27 10:00:41;;;;;;;6.47;5.30;;;;;;;;;;5282911;28;20028;-72
2023/10/27 10:03:13;;;;;;;5.82;5.13;;;;;;;;;;5283655;28;20061;-73
2023/10/27 10:06:03;;;;;;;6.28;5.10;;;;;;;;;;5283287;28;20013;-72
2023/10/27 10:08:34;;;;;;;6.05;5.07;;;;;;;;;;5282614;28;20502;-71
2023/10/27 10:11:18;;;;;;;6.40;5.80;;;;;;;;;;5283571;28;20134;-71
2023/10/27 10:13:49;;;;;;;6.95;5.97;;;;;;;;;;5282239;28;20032;-71
2023/10/27 10:16:21;;;;;;;7.75;6.13;;;;;;;;;;5283583;28;20067;-70
2023/10/27 10:18:52;;;;;;;6.32;5.72;;;;;;;;;;5282430;28;20111;-70
2023/10/27 10:21:31;;;;;;;7.18;6.47;;;;;;;;;;5282008;28;20013;-70
2023/10/27 10:24:03;;;;;;;6.63;6.00;;;;;;;;;;5282429;28;20021;-70
2023/10/27 10:26:53;;;;;;;6.55;5.38;;;;;;;;;;5282680;28;20024;-69
2023/10/27 10:29:28;;;;;;;6.35;5.75;;;;;;;;;;5281544;28;20429;-70
2023/10/27 10:32:17;;;;;;;7.53;6.80;;;;;;;;;;5282136;28;20012;-70
2023/10/27 10:35:07;;;;;;;6.80;6.07;;;;;;;;;;5280988;28;20036;-70
2023/10/27 10:37:38;;;;;;;7.00;6.30;;;;;;;;;;5282541;28;20386;-72
2023/10/27 10:40:16;;;;;;;8.27;6.30;;;;;;;;;;5282897;28;20043;-71
2023/10/27 10:43:06;;;;;;;11.02;8.77;;;;;;;;;;5281635;28;20163;-72
2023/10/27 10:45:43;;;;;;;8.43;7.63;;;;;;;;;;5282263;28;20028;-72
2023/10/27 10:48:14;;;;;;;10.75;9.63;;;;;;;;;;5282548;28;20053;-71
2023/10/27 10:50:46;;;;;;;10.25;9.23;;;;;;;;;;5281556;28;20029;-72
2023/10/27 10:53:19;;;;;;;10.95;9.80;;;;;;;;;;5282927;28;20020;-71
2023/10/27 10:55:55;;;;;;;10.00;8.98;;;;;;;;;;5281531;28;20012;-72
2023/10/27 10:58:28;;;;;;;10.55;9.52;;;;;;;;;;5282295;28;20040;-72
2023/10/27 11:00:59;;;;;;;11.10;9.13;;;;;;;;;;5282851;28;20013;-72
2023/10/27 11:03:34;;;;;;;9.32;8.35;;;;;;;;;;5281840;28;20027;-72
2023/10/27 11:06:06;;;;;;;9.55;8.18;;;;;;;;;;5282365;28;20055;-71
2023/10/27 11:08:37;;;;;;;8.98;7.45;;;;;;;;;;5282167;28;20044;-72
2023/10/27 11:11:09;;;;;;;7.50;6.78;;;;;;;;;;5281205;28;20480;-72
2023/10/27 11:13:41;;;;;;;8.45;6.65;;;;;;;;;;5282427;28;20015;-72
2023/10/27 11:16:15;;;;;;;7.90;5.95;;;;;;;;;;5282228;28;20099;-72
2023/10/27 11:18:48;;;;;;;9.60;5.80;;;;;;;;;;5281124;28;20035;-71
2023/10/27 11:21:20;;;;;;;5.85;4.43;;;;;;;;;;5282193;28;20020;-71
2023/10/27 11:23:51;;;;;;;5.68;4.10;;;;;;;;;;5280785;28;20013;-72
2023/10/27 11:26:23;;;;;;;4.65;3.88;;;;;;;;;;5282455;28;20427;-71
2023/10/27 11:28:55;;;;;;;4.85;3.58;;;;;;;;;;5282277;28;20016;-72
2023/10/27 11:31:27;;;;;;;7.80;3.67;;;;;;;;;;5280883;28;20021;-71
2023/10/27 11:34:03;;;;;;;5.97;3.22;;;;;;;;;;5281240;28;20028;-71
2023/10/27 11:36:40;;;;;;;5.35;3.22;;;;;;;;;;5281879;28;20017;-72
2023/10/27 11:39:16;;;;;;;6.75;2.60;;;;;;;;;;5281245;28;20050;-72
2023/10/27 11:41:59;;;;;;;6.60;2.67;;;;;;;;;;5281689;28;20020;-70
2023/10/27 11:44:31;;;;;;;4.70;2.42;;;;;;;;;;5281726;28;20455;-71
2023/10/27 11:47:02;;;;;;;5.47;2.22;;;;;;;;;;5280852;28;20121;-75
2023/10/27 11:49:33;;;;;;;4.15;2.30;;;;;;;;;;5281379;28;20016;-76
2023/10/27 11:52:05;;;;;;;4.30;2.30;;;;;;;;;;5280904;28;20103;-77
2023/10/27 11:54:36;;;;;;;5.45;2.38;;;;;;;;;;5281656;28;20050;-75
2023/10/27 11:57:07;;;;;;;2.73;1.63;;;;;;;;;;5281976;28;20061;-75
2023/10/27 11:59:39;;;;;;;3.80;2.50;;;;;;;;;;5279994;28;20327;-75
2023/10/27 12:02:10;;;;;;;4.47;1.80;;;;;;;;;;5281854;28;20363;-73
2023/10/27 12:04:41;;;;;;;5.03;2.67;;;;;;;;;;5281750;28;20080;-75
2023/10/27 12:07:14;;;;;;;4.65;2.15;;;;;;;;;;5280315;28;20050;-75
2023/10/27 12:09:45;;;;;;;4.38;1.73;;;;;;;;;;5281372;28;20029;-75
2023/10/27 12:12:16;;;;;;;4.13;1.85;;;;;;;;;;5282021;28;20027;-76
2023/10/27 12:14:48;;;;;;;3.60;2.00;;;;;;;;;;5280467;28;20039;-75
2023/10/27 12:17:20;;;;;;;4.47;2.00;;;;;;;;;;5281837;28;20358;-75
2023/10/27 12:19:51;;;;;;;3.75;2.33;;;;;;;;;;5280946;28;20021;-74
2023/10/27 12:22:22;;;;;;;6.10;2.37;;;;;;;;;;5280784;28;20037;-71
2023/10/27 12:24:53;;;;;;;4.43;2.27;;;;;;;;;;5280937;28;20274;-75
2023/10/27 12:27:25;;;;;;;4.00;2.17;;;;;;;;;;5280736;28;20296;-72
2023/10/27 12:29:56;;;;;;;3.30;1.20;;;;;;;;;;5281427;28;20021;-73
2023/10/27 12:32:32;;;;;;;4.50;0.95;;;;;;;;;;5281601;28;20162;-75
2023/10/27 12:35:03;;;;;;;3.38;0.63;;;;;;;;;;5280664;28;20361;-76
2023/10/27 12:37:35;;;;;;;2.92;0.80;;;;;;;;;;5281441;28;20099;-74
2023/10/27 12:40:06;;;;;;;2.13;0.65;;;;;;;;;;5281240;28;20119;-74
2023/10/27 12:42:38;;;;;;;2.25;0.63;;;;;;;;;;5280430;28;20017;-74
2023/10/27 12:45:13;;;;;;;2.35;0.90;;;;;;;;;;5284109;28;20027;-74
2023/10/27 12:47:45;;;;;;;3.03;0.77;;;;;;;;;;5284624;28;20056;-72
2023/10/27 12:50:16;;;;;;;2.60;0.90;;;;;;;;;;5284655;28;20020;-74
2023/10/27 12:52:47;;;;;;;4.57;1.65;;;;;;;;;;5284689;28;20028;-73
2023/10/27 12:55:19;;;;;;;2.25;0.80;;;;;;;;;;5284596;28;20451;-73
2023/10/27 12:57:50;;;;;;;2.35;0.93;;;;;;;;;;5285050;28;20491;-73
2023/10/27 13:00:22;;;;;;;3.05;0.90;;;;;;;;;;5285674;28;20177;-73
2023/10/27 13:02:53;;;;;;;3.40;1.55;;;;;;;;;;5283924;28;20012;-75
2023/10/27 13:05:25;;;;;;;3.58;0.90;;;;;;;;;;5284885;28;20028;-74
2023/10/27 13:07:57;;;;;;;2.00;0.80;;;;;;;;;;5285019;28;20451;-74
2023/10/27 13:10:28;;;;;;;2.45;1.00;;;;;;;;;;5284282;28;20031;-74
2023/10/27 13:13:02;;;;;;;3.00;0.98;;;;;;;;;;5284763;28;20013;-74
2023/10/27 13:15:33;;;;;;;2.80;1.10;;;;;;;;;;5284792;28;20016;-74
2023/10/27 13:18:05;;;;;;;3.47;1.40;;;;;;;;;;5283954;28;20417;-74
2023/10/27 13:20:36;;;;;;;3.03;1.00;;;;;;;;;;5284220;28;20074;-72
2023/10/27 13:23:09;;;;;;;3.90;1.30;;;;;;;;;;5284460;28;20490;-70
2023/10/27 13:25:40;;;;;;;2.42;1.02;;;;;;;;;;5283383;28;20689;-74
2023/10/27 13:28:14;;;;;;;2.72;1.20;;;;;;;;;;5284452;28;20096;-74
2023/10/27 13:30:46;;;;;;;2.15;1.10;;;;;;;;;;5283454;28;20354;-74
2023/10/27 13:33:17;;;;;;;2.53;1.40;;;;;;;;;;5284383;28;20091;-73
2023/10/27 13:35:48;;;;;;;3.75;1.27;;;;;;;;;;5283746;28;20054;-76
2023/10/27 13:38:19;;;;;;;3.77;1.47;;;;;;;;;;5283440;28;20436;-76
2023/10/27 13:40:51;;;;;;;3.80;1.40;;;;;;;;;;5283600;28;20259;-72
2023/10/27 13:43:23;;;;;;;3.10;1.33;;;;;;;;;;5284700;28;20345;-72
2023/10/27 13:45:59;;;;;;;3.50;2.15;;;;;;;;;;5283328;28;20096;-71
2023/10/27 13:48:33;;;;;;;3.83;1.40;;;;;;;;;;5283927;28;20047;-75
2023/10/27 13:51:10;;;;;;;4.28;1.55;;;;;;;;;;5284021;28;20752;-79
2023/10/27 13:53:42;;;;;;;2.80;1.38;;;;;;;;;;5282234;28;20024;-79
2023/10/27 13:56:14;;;;;;;3.60;1.30;;;;;;;;;;5281264;28;20078;-78
2023/10/27 13:58:45;;;;;;;2.78;1.65;;;;;;;;;;5282681;28;20029;-78
2023/10/27 14:01:18;;;;;;;3.08;1.67;;;;;;;;;;5284054;28;20451;-78
2023/10/27 14:03:49;;;;;;;2.50;1.48;;;;;;;;;;5283477;28;20029;-77
2023/10/27 14:06:20;;;;;;;4.03;1.75;;;;;;;;;;5283356;27;20478;-78
2023/10/27 14:08:52;;;;;;;4.40;1.58;;;;;;;;;;5283453;28;20031;-77
2023/10/27 14:11:24;;;;;;;3.50;1.40;;;;;;;;;;5283162;28;20028;-77
2023/10/27 14:13:55;;;;;;;3.40;1.85;;;;;;;;;;5282489;28;20033;-77
2023/10/27 14:16:26;;;;;;;4.47;1.73;;;;;;;;;;5283107;28;20019;-78
2023/10/27 14:18:57;;;;;;;5.80;2.10;;;;;;;;;;5282363;28;20028;-77
2023/10/27 14:21:29;;;;;;;4.70;2.05;;;;;;;;;;5281177;28;20020;-78
2023/10/27 14:24:01;;;;;;;3.55;2.15;;;;;;;;;;5281997;28;20093;-77
2023/10/27 14:26:32;;;;;;;5.50;2.33;;;;;;;;;;5283033;28;20012;-77
2023/10/27 14:29:04;;;;;;;6.65;3.17;;;;;;;;;;5281761;28;20035;-78
2023/10/27 14:31:35;;;;;;;3.83;2.40;;;;;;;;;;5282805;28;20024;-79
2023/10/27 14:34:07;;;;;;;4.05;2.08;;;;;;;;;;5282562;28;20450;-77
2023/10/27 14:36:39;;;;;;;5.95;2.83;;;;;;;;;;5283897;28;20017;-77
2023/10/27 14:39:13;;;;;;;4.07;2.70;;;;;;;;;;5286507;28;20384;-78
2023/10/27 14:41:44;;;;;;;4.57;2.60;;;;;;;;;;5281394;28;20341;-77
2023/10/27 14:44:15;;;;;;;7.18;2.40;;;;;;;;;;5283525;28;20023;-78
2023/10/27 14:46:47;;;;;;;5.47;2.67;;;;;;;;;;5282142;28;20051;-77
2023/10/27 14:49:18;;;;;;;6.18;3.20;;;;;;;;;;5281668;28;20299;-74
2023/10/27 14:51:51;;;;;;;5.57;3.10;;;;;;;;;;5281696;28;20456;-81
2023/10/27 14:54:22;;;;;;;4.57;2.78;;;;;;;;;;5282976;28;20024;-79
2023/10/27 14:56:53;;;;;;;6.32;3.05;;;;;;;;;;5281456;28;20061;-79
2023/10/27 14:59:24;;;;;;;5.93;3.50;;;;;;;;;;5282575;28;20513;-79
2023/10/27 15:01:55;;;;;;;4.13;2.13;;;;;;;;;;5281377;28;20021;-75
2023/10/27 15:04:27;;;;;;;5.33;2.37;;;;;;;;;;5282344;28;20278;-77